Time;durP1;ratioP1;P1;durP2;ratioP2;P2;SDS_P1;SDS_P2;PMS_P1;PMS_P2;Temp;Humidity;BMP_temperature;BMP_pressure;BME280_temperature;BME280_humidity;BME280_pressure;Samples;Min_cycle;Max_cycle;Signal;HPM_P1;HPM_P2
2022/11/16 00:01:04;;;;;;;21.33;12.00;;;;;;;8.46;72.76;99146.59;4905746;29;20023;-91
2022/11/16 00:03:31;;;;;;;21.48;11.60;;;;;;;8.53;72.66;99156.28;4874562;29;20060;-91
2022/11/16 00:06:00;;;;;;;23.60;12.18;;;;;;;8.55;72.23;99130.84;4909910;29;20085;-90
2022/11/16 00:08:30;;;;;;;20.48;12.35;;;;;;;8.72;71.83;99133.31;4901110;29;20084;-92
2022/11/16 00:11:12;;;;;;;21.42;11.90;;;;;;;8.79;71.49;99141.13;4883954;29;20447;-91
2022/11/16 00:13:38;;;;;;;22.27;11.20;;;;;;;8.66;72.01;99145.91;4929300;29;20141;-91
2022/11/16 00:16:04;;;;;;;25.20;11.90;;;;;;;8.70;72.40;99155.06;4894239;29;20040;-91
2022/11/16 00:18:32;;;;;;;22.17;11.18;;;;;;;8.77;71.30;99145.97;4878492;29;20058;-92
2022/11/16 00:20:58;;;;;;;21.67;11.68;;;;;;;8.84;70.77;99158.06;4913470;29;21068;-91
2022/11/16 00:23:25;;;;;;;21.48;11.63;;;;;;;8.78;71.19;99131.44;4904350;29;20032;-92
2022/11/16 00:25:52;;;;;;;24.20;12.07;;;;;;;8.87;70.96;99151.38;4915751;29;20031;-92
2022/11/16 00:28:20;;;;;;;18.88;11.07;;;;;;;8.81;70.97;99149.72;4918248;29;20067;-92
2022/11/16 00:30:46;;;;;;;18.88;11.73;;;;;;;8.64;70.96;99125.78;4908715;29;20034;-92
2022/11/16 00:33:15;;;;;;;24.13;11.90;;;;;;;8.45;72.16;99136.16;4883351;29;20036;-92
2022/11/16 00:35:40;;;;;;;26.50;11.95;;;;;;;8.29;72.97;99124.47;4891577;29;20579;-92
2022/11/16 00:38:06;;;;;;;19.05;10.38;;;;;;;8.03;73.68;99112.78;4898019;29;20130;-92
2022/11/16 00:40:32;;;;;;;26.05;12.13;;;;;;;7.99;74.16;99112.50;4898562;29;20043;-92
2022/11/16 00:42:57;;;;;;;18.42;11.70;;;;;;;8.09;73.60;99117.94;4883403;29;20012;-91
2022/11/16 00:45:23;;;;;;;21.30;11.35;;;;;;;8.29;72.36;99113.75;4878327;29;20043;-91
2022/11/16 00:47:48;;;;;;;20.60;11.82;;;;;;;8.30;72.26;99115.38;4899776;29;20056;-92
2022/11/16 00:50:15;;;;;;;18.52;10.18;;;;;;;8.26;72.68;99114.28;4901200;29;20036;-94
2022/11/16 00:52:42;;;;;;;25.92;12.55;;;;;;;8.10;73.01;99103.44;4890266;29;20047;-95
2022/11/16 00:55:08;;;;;;;22.70;11.65;;;;;;;7.95;73.39;99099.84;4876838;29;20138;-94
2022/11/16 00:57:35;;;;;;;23.23;10.98;;;;;;;8.11;73.36;99104.25;4874453;29;20036;-92
2022/11/16 01:00:03;;;;;;;20.63;11.43;;;;;;;8.24;71.94;99086.91;4928347;29;20027;-94
2022/11/16 01:02:28;;;;;;;18.77;10.45;;;;;;;8.32;71.20;99091.75;4907572;29;20040;-94
2022/11/16 01:04:56;;;;;;;18.65;10.18;;;;;;;8.45;71.64;99090.53;4881040;29;20038;-94
2022/11/16 01:07:22;;;;;;;20.60;10.80;;;;;;;8.35;72.39;99088.56;4883453;29;20030;-93
2022/11/16 01:09:48;;;;;;;20.02;11.40;;;;;;;8.13;72.59;99069.94;4899973;29;20028;-94
2022/11/16 01:12:16;;;;;;;23.25;11.35;;;;;;;7.94;73.36;99050.00;4877272;29;20028;-95
2022/11/16 01:14:43;;;;;;;23.92;11.65;;;;;;;7.99;73.76;99058.06;4911688;29;20048;-94
2022/11/16 01:17:08;;;;;;;20.77;10.88;;;;;;;7.98;73.40;99048.41;4877568;29;20127;-94
2022/11/16 01:19:36;;;;;;;21.10;11.10;;;;;;;8.21;72.42;99055.25;4883011;29;20042;-95
2022/11/16 01:22:02;;;;;;;18.58;10.38;;;;;;;8.18;71.76;99045.84;4893771;29;20032;-95
2022/11/16 01:24:28;;;;;;;22.00;11.52;;;;;;;8.27;71.89;99051.50;4883951;29;20522;-94
2022/11/16 01:26:57;;;;;;;21.27;10.57;;;;;;;8.17;72.04;99036.16;4879178;29;20022;-94
2022/11/16 01:29:27;;;;;;;20.58;10.85;;;;;;;8.22;71.25;99038.09;4887501;29;20028;-93
2022/11/16 01:31:54;;;;;;;19.27;10.07;;;;;;;8.16;71.33;99026.53;4881797;29;20114;-92
2022/11/16 01:34:19;;;;;;;20.27;10.70;;;;;;;8.23;71.54;99034.34;4888473;29;20094;-92
2022/11/16 01:36:46;;;;;;;17.00;10.23;;;;;;;8.14;71.12;99019.81;4881699;29;20036;-92
2022/11/16 01:39:12;;;;;;;19.63;10.32;;;;;;;8.03;71.11;99018.94;4915680;29;20028;-92
2022/11/16 01:41:38;;;;;;;18.70;9.70;;;;;;;8.08;71.38;99025.13;4867854;29;20131;-92
2022/11/16 01:44:06;;;;;;;18.50;10.45;;;;;;;8.12;71.45;99028.13;4875844;29;20025;-94
2022/11/16 01:46:32;;;;;;;17.42;10.20;;;;;;;8.08;71.15;99018.97;4861530;29;20040;-93
2022/11/16 01:49:09;;;;;;;16.38;9.32;;;;;;;8.00;71.55;99024.84;4890612;29;20031;-93
2022/11/16 01:51:34;;;;;;;20.08;9.77;;;;;;;7.84;71.22;99010.53;4877026;29;20026;-92
2022/11/16 01:54:01;;;;;;;18.38;9.68;;;;;;;7.67;72.12;98999.97;4862142;29;20024;-92
2022/11/16 01:56:30;;;;;;;20.67;9.60;;;;;;;7.81;72.33;99027.13;4870801;29;20044;-92
2022/11/16 01:58:57;;;;;;;18.90;9.50;;;;;;;7.77;72.28;99016.13;4896310;29;20032;-92
2022/11/16 02:01:24;;;;;;;15.82;9.75;;;;;;;7.83;72.12;99025.00;4884377;29;20506;-92
2022/11/16 02:03:51;;;;;;;16.38;9.05;;;;;;;7.77;71.86;99016.13;4870052;29;20048;-91
2022/11/16 02:06:20;;;;;;;18.73;10.13;;;;;;;7.90;71.77;99031.72;4887984;29;20035;-92
2022/11/16 02:12:07;;;;;;;16.95;9.07;;;;;;;7.81;72.09;99027.13;4911198;29;20038;-92
2022/11/16 02:14:42;;;;;;;18.27;9.52;;;;;;;7.79;72.22;99022.03;4879882;29;20479;-93
2022/11/16 02:17:22;;;;;;;21.02;10.35;;;;;;;7.87;72.00;99023.44;4891362;29;20091;-93
2022/11/16 02:19:51;;;;;;;20.77;10.57;;;;;;;7.58;73.37;99017.63;4895143;29;20114;-94
2022/11/16 02:22:44;;;;;;;20.42;10.77;;;;;;;7.46;73.99;99007.06;4887031;29;20079;-93
2022/11/16 02:25:40;;;;;;;20.52;10.88;;;;;;;7.32;74.77;99001.34;4901160;29;20720;-94
2022/11/16 02:28:44;;;;;;;19.58;10.32;;;;;;;7.30;74.86;99003.47;4872419;29;20036;-92
2022/11/16 02:31:13;;;;;;;18.92;9.80;;;;;;;7.29;74.39;99005.34;4875476;29;20033;-94
2022/11/16 02:33:39;;;;;;;20.92;10.25;;;;;;;7.23;74.98;99005.56;4874849;29;20125;-94
2022/11/16 02:36:06;;;;;;;23.40;11.00;;;;;;;7.15;75.51;98982.72;4856244;29;20487;-94
2022/11/16 02:38:37;;;;;;;23.80;10.70;;;;;;;7.13;74.84;98978.69;4862259;29;20585;-94
2022/11/16 02:41:12;;;;;;;20.23;10.13;;;;;;;7.09;75.19;98981.06;4865231;29;20052;-93
2022/11/16 02:43:40;;;;;;;18.60;9.98;;;;;;;7.16;75.19;98994.25;4885581;29;20079;-92
2022/11/16 02:46:08;;;;;;;21.55;10.02;;;;;;;7.13;75.59;98986.72;4877969;29;20027;-92
2022/11/16 02:48:38;;;;;;;21.70;10.73;;;;;;;7.13;75.45;98984.06;4883137;29;20042;-92
2022/11/16 02:51:05;;;;;;;23.02;11.15;;;;;;;7.16;75.09;98978.19;4914380;29;20100;-92
2022/11/16 02:53:50;;;;;;;20.05;10.50;;;;;;;7.22;75.01;98991.38;4906062;29;20099;-93
2022/11/16 02:56:16;;;;;;;17.52;9.52;;;;;;;7.27;74.66;98988.72;4896273;29;20050;-93
2022/11/16 02:58:42;;;;;;;22.08;10.15;;;;;;;7.21;74.23;98978.22;4908391;29;20028;-92
2022/11/16 03:01:11;;;;;;;22.17;10.77;;;;;;;7.25;75.33;98990.03;4878227;29;20031;-92
2022/11/16 03:04:01;;;;;;;19.05;10.38;;;;;;;7.14;74.94;98975.78;4884628;29;20046;-92
2022/11/16 03:06:50;;;;;;;21.52;10.02;;;;;;;7.23;74.77;98986.81;4919055;29;20091;-92
2022/11/16 03:09:40;;;;;;;21.38;10.63;;;;;;;7.19;75.11;98986.50;4874605;29;20071;-92
2022/11/16 03:12:07;;;;;;;19.38;10.25;;;;;;;6.92;76.03;98949.09;4844929;29;20052;-92
2022/11/16 03:14:39;;;;;;;21.52;10.57;;;;;;;7.09;75.76;98968.47;4829282;29;20033;-90
2022/11/16 03:17:06;;;;;;;19.02;10.10;;;;;;;7.18;75.29;98968.84;4840088;29;20599;-92
2022/11/16 03:19:54;;;;;;;23.73;10.13;;;;;;;7.14;75.30;98958.88;4830922;29;20503;-92
2022/11/16 03:22:43;;;;;;;17.50;10.05;;;;;;;7.18;75.28;98960.00;4858061;29;20070;-93
2022/11/16 03:25:10;;;;;;;22.20;10.18;;;;;;;7.20;75.86;98957.84;4859925;29;20041;-92
2022/11/16 03:27:48;;;;;;;19.15;9.95;;;;;;;7.22;75.27;98969.13;4832621;29;20048;-92
2022/11/16 03:30:19;;;;;;;20.13;10.18;;;;;;;7.07;75.45;98943.84;4848748;29;20064;-91
2022/11/16 03:33:14;;;;;;;19.77;9.68;;;;;;;7.18;75.08;98947.44;4841003;29;20048;-93
2022/11/16 03:35:49;;;;;;;17.50;9.82;;;;;;;7.16;75.10;98928.13;4863943;29;20500;-92
2022/11/16 03:38:15;;;;;;;20.20;9.82;;;;;;;7.20;75.03;98931.09;4850746;29;20048;-93
2022/11/16 03:40:41;;;;;;;21.25;10.55;;;;;;;7.17;75.59;98926.25;4835239;29;20488;-92
2022/11/16 03:44:12;;;;;;;;;;;;;;;;;;;;;
2022/11/16 03:46:45;;;;;;;16.60;8.80;;;;;;;7.12;75.14;98907.47;4895146;29;20042;-92
2022/11/16 03:49:11;;;;;;;16.55;9.25;;;;;;;7.14;75.56;98902.66;4897518;29;20040;-91
2022/11/16 03:51:37;;;;;;;21.42;10.43;;;;;;;7.09;75.50;98908.78;4895514;29;20040;-92
2022/11/16 03:54:03;;;;;;;20.00;10.23;;;;;;;7.13;75.69;98911.78;4888906;29;20534;-92
2022/11/16 03:56:29;;;;;;;17.73;9.77;;;;;;;7.31;74.99;98899.84;4899308;29;20048;-92
2022/11/16 03:58:56;;;;;;;18.67;10.07;;;;;;;7.32;74.21;98904.13;4910191;29;20470;-92
2022/11/16 04:01:22;;;;;;;19.23;9.90;;;;;;;7.46;73.67;98897.25;4917056;29;20035;-92
2022/11/16 04:03:48;;;;;;;16.77;10.27;;;;;;;7.64;73.38;98928.16;4915251;29;20486;-92
2022/11/16 04:25:52;;;;;;;18.60;9.57;;;;;;;7.26;73.93;98901.44;4938683;29;20039;-95
2022/11/16 04:28:21;;;;;;;17.88;10.13;;;;;;;7.18;74.13;98888.53;4906024;29;20048;-94
2022/11/16 04:39:07;;;;;;;18.17;9.50;;;;;;;6.98;74.63;98899.88;4891982;29;20043;-94
2022/11/16 04:47:23;;;;;;;20.05;10.50;;;;;;;6.66;75.41;98881.97;4843053;29;20106;-91
2022/11/16 04:49:49;;;;;;;20.75;8.95;;;;;;;6.67;75.31;98880.09;4880847;29;20039;-92
2022/11/16 04:52:17;;;;;;;21.23;11.38;;;;;;;6.76;75.82;98889.28;4897813;29;20513;-94
2022/11/16 04:54:43;;;;;;;19.20;9.40;;;;;;;6.76;75.46;98869.75;4900936;29;20543;-94
2022/11/16 04:57:11;;;;;;;17.27;9.50;;;;;;;6.77;75.96;98890.09;4908777;29;20032;-92
2022/11/16 04:59:37;;;;;;;17.42;9.23;;;;;;;6.67;75.83;98870.22;4907861;29;20561;-92
2022/11/16 05:02:07;;;;;;;18.08;9.63;;;;;;;6.72;75.79;98876.66;4877995;29;20035;-91
2022/11/16 05:04:33;;;;;;;19.17;9.40;;;;;;;6.67;75.54;98869.41;4909782;29;20087;-92
2022/11/16 05:06:58;;;;;;;23.80;9.38;;;;;;;6.68;75.67;98868.34;4912599;29;20056;-94
2022/11/16 05:09:24;;;;;;;20.67;10.15;;;;;;;6.91;75.21;98869.03;4885580;29;20122;-91
2022/11/16 05:11:50;;;;;;;20.80;10.35;;;;;;;6.89;75.10;98874.69;4871128;29;20068;-90
2022/11/16 05:14:17;;;;;;;17.73;11.00;;;;;;;6.93;74.70;98869.59;4905132;29;20031;-94
2022/11/16 05:16:42;;;;;;;21.98;9.93;;;;;;;6.97;74.05;98868.84;4898021;29;20047;-93
2022/11/16 05:21:55;;;;;;;19.27;8.43;;;;;;;7.16;73.07;98882.63;4916255;29;20394;-94
2022/11/16 05:24:32;;;;;;;17.35;9.52;;;;;;;7.07;72.67;98868.88;4886408;29;20055;-92
2022/11/16 05:27:12;;;;;;;19.25;8.48;;;;;;;7.02;72.73;98863.50;4873932;29;20029;-93
2022/11/16 05:29:38;;;;;;;15.70;9.07;;;;;;;6.98;73.25;98875.00;4895263;29;20023;-93
2022/11/16 05:32:06;;;;;;;19.15;9.23;;;;;;;6.88;73.16;98862.34;4901687;29;20020;-93
2022/11/16 05:34:35;;;;;;;15.98;9.32;;;;;;;6.87;73.44;98858.88;4904625;29;20028;-94
2022/11/16 05:37:01;;;;;;;17.23;8.50;;;;;;;6.87;73.24;98863.41;4894131;29;20030;-94
2022/11/16 05:39:28;;;;;;;16.60;8.45;;;;;;;6.85;73.07;98855.63;4909187;29;20503;-94
2022/11/16 05:41:54;;;;;;;18.63;9.02;;;;;;;6.94;73.19;98872.03;4916640;29;20047;-94
2022/11/16 05:44:21;;;;;;;21.77;9.85;;;;;;;6.84;72.92;98843.31;4893588;29;20114;-94
2022/11/16 05:46:47;;;;;;;16.15;8.15;;;;;;;7.01;72.79;98859.22;4910166;29;20110;-91
2022/11/16 05:49:16;;;;;;;23.00;14.02;;;;;;;6.99;72.48;98855.19;4877217;29;20415;-92
2022/11/16 05:51:44;;;;;;;14.45;8.63;;;;;;;6.91;72.48;98840.44;4917562;29;20067;-94
2022/11/16 05:54:11;;;;;;;20.80;11.32;;;;;;;7.06;72.76;98832.50;4904943;29;20032;-93
2022/11/16 05:56:37;;;;;;;21.50;12.75;;;;;;;7.05;72.69;98843.44;4890147;29;20023;-94
2022/11/16 05:59:04;;;;;;;22.73;10.32;;;;;;;7.08;72.08;98840.28;4904811;29;20027;-93
2022/11/16 06:01:29;;;;;;;26.02;13.73;;;;;;;6.93;73.00;98840.97;4906675;29;20506;-93
2022/11/16 06:03:57;;;;;;;19.25;9.77;;;;;;;6.79;73.54;98832.59;4888169;29;20034;-93
2022/11/16 06:06:25;;;;;;;18.10;8.18;;;;;;;6.88;73.17;98836.38;4883902;29;20028;-94
2022/11/16 06:08:51;;;;;;;20.83;10.32;;;;;;;6.99;72.83;98861.38;4893510;29;20115;-92
2022/11/16 06:11:17;;;;;;;17.88;10.20;;;;;;;6.90;73.24;98846.84;4912742;29;20035;-93
2022/11/16 06:13:43;;;;;;;18.42;9.10;;;;;;;7.10;72.46;98851.53;4897278;29;20047;-92
2022/11/16 06:16:09;;;;;;;17.13;9.30;;;;;;;7.07;72.52;98847.47;4899082;29;20040;-93
2022/11/16 06:18:37;;;;;;;31.17;16.30;;;;;;;7.12;72.81;98841.38;4893408;29;20494;-92
2022/11/16 06:21:04;;;;;;;20.65;11.52;;;;;;;7.19;72.62;98841.13;4885409;29;20099;-92
2022/11/16 06:23:30;;;;;;;19.45;10.85;;;;;;;7.36;72.05;98840.94;4900557;29;20046;-91
2022/11/16 06:25:59;;;;;;;20.20;10.25;;;;;;;7.40;71.18;98832.13;4871527;29;20036;-92
2022/11/16 06:28:26;;;;;;;22.58;10.77;;;;;;;7.27;71.52;98820.03;4894128;29;20032;-92
2022/11/16 06:30:52;;;;;;;23.58;10.38;;;;;;;7.31;71.79;98830.22;4891189;29;20087;-91
2022/11/16 06:33:18;;;;;;;22.15;9.40;;;;;;;7.43;71.32;98825.47;4883627;29;20090;-91
2022/11/16 06:35:45;;;;;;;22.27;10.15;;;;;;;7.52;71.19;98839.97;4879522;29;20075;-93
2022/11/16 06:38:17;;;;;;;20.65;10.77;;;;;;;7.36;71.43;98816.84;4880636;29;20119;-92
2022/11/16 06:40:43;;;;;;;20.65;10.23;;;;;;;7.46;71.50;98832.97;4870687;29;20032;-93
2022/11/16 06:43:09;;;;;;;37.38;22.15;;;;;;;7.46;71.45;98823.03;4899630;29;20154;-90
2022/11/16 06:45:35;;;;;;;18.98;11.75;;;;;;;7.65;70.41;98833.31;4899808;29;20028;-93
2022/11/16 06:48:18;;;;;;;17.45;10.00;;;;;;;7.85;69.49;98840.63;4869335;29;20047;-96
2022/11/16 06:50:56;;;;;;;59.47;31.23;;;;;;;7.77;69.75;98833.09;4914302;29;20020;-96
2022/11/16 06:53:23;;;;;;;24.38;12.45;;;;;;;7.74;69.67;98810.31;4891625;29;20111;-96
2022/11/16 06:55:52;;;;;;;23.95;9.85;;;;;;;7.56;70.25;98814.25;4880693;29;20032;-96
2022/11/16 06:58:23;;;;;;;20.70;10.52;;;;;;;7.75;70.21;98813.78;4904628;29;20035;-96
2022/11/16 07:00:52;;;;;;;19.15;10.90;;;;;;;8.03;69.54;98829.41;4935594;29;20368;-95
2022/11/16 07:03:19;;;;;;;24.95;10.52;;;;;;;7.86;69.92;98792.13;4878738;29;20073;-95
2022/11/16 07:05:51;;;;;;;21.38;11.32;;;;;;;8.03;69.49;98820.53;4935947;29;20479;-96
2022/11/16 07:08:31;;;;;;;19.55;11.32;;;;;;;8.04;69.32;98792.66;4895461;29;20031;-96
2022/11/16 07:11:05;;;;;;;20.50;11.77;;;;;;;8.20;69.33;98799.66;4911699;29;20048;-96
2022/11/16 07:13:32;;;;;;;17.80;10.80;;;;;;;8.27;69.00;98776.06;4895322;29;20098;-95
2022/11/16 07:16:20;;;;;;;44.22;25.35;;;;;;;8.29;68.58;98778.47;4917297;28;20046;-96
2022/11/16 07:19:10;;;;;;;25.65;12.88;;;;;;;8.40;67.73;98773.91;4906290;29;20072;-96
2022/11/16 07:21:43;;;;;;;17.67;9.43;;;;;;;8.51;67.66;98772.88;4909563;29;20031;-96
2022/11/16 07:24:13;;;;;;;16.77;9.85;;;;;;;8.69;67.17;98792.97;4905012;29;20055;-94
2022/11/16 07:27:10;;;;;;;22.23;10.65;;;;;;;8.82;66.98;98780.88;4915599;29;20105;-96
2022/11/16 07:36:59;;;;;;;17.25;9.63;;;;;;;9.29;65.35;98788.53;4958855;29;20072;-97
2022/11/16 07:39:29;;;;;;;18.60;11.15;;;;;;;9.26;65.51;98775.66;4934389;29;20502;-96
2022/11/16 07:44:54;;;;;;;24.02;13.10;;;;;;;9.36;65.29;98782.06;4942927;23;20062;-96
2022/11/16 07:50:52;;;;;;;22.50;11.00;;;;;;;9.45;64.65;98767.78;4936992;29;20067;-96
2022/11/16 07:53:18;;;;;;;55.88;28.42;;;;;;;9.49;63.91;98750.03;4891347;29;20530;-93
2022/11/16 07:55:43;;;;;;;17.73;10.75;;;;;;;9.65;63.35;98747.25;4909240;29;20019;-96
2022/11/16 07:58:09;;;;;;;17.40;9.95;;;;;;;9.84;62.86;98756.28;4902706;29;20027;-96
2022/11/16 08:00:37;;;;;;;16.90;9.60;;;;;;;9.82;62.66;98736.94;4899833;29;20024;-96
2022/11/16 08:03:15;;;;;;;18.73;10.70;;;;;;;9.95;62.43;98743.56;4920886;29;20032;-95
2022/11/16 08:05:44;;;;;;;14.68;9.77;;;;;;;10.09;62.26;98744.56;4915696;29;20061;-93
2022/11/16 08:11:01;;;;;;;16.23;10.40;;;;;;;10.26;62.24;98757.59;4931490;29;20104;-93
2022/11/16 08:13:30;;;;;;;22.17;12.15;;;;;;;10.16;63.17;98754.19;4900443;29;20027;-96
2022/11/16 08:16:01;;;;;;;15.63;9.73;;;;;;;10.10;63.13;98745.34;4891624;29;20031;-93
2022/11/16 08:18:27;;;;;;;17.33;9.35;;;;;;;10.16;61.92;98741.53;4889445;29;20479;-96
2022/11/16 08:21:02;;;;;;;21.40;12.20;;;;;;;10.23;61.70;98720.50;4888161;29;20062;-92
2022/11/16 08:23:31;;;;;;;17.08;8.52;;;;;;;10.38;61.06;98724.19;4870045;29;20039;-93
2022/11/16 08:26:09;;;;;;;16.55;9.45;;;;;;;10.55;60.48;98727.25;4883919;29;20032;-92
2022/11/16 08:28:38;;;;;;;14.13;9.35;;;;;;;10.65;60.60;98727.16;4889497;29;20040;-91
2022/11/16 08:31:11;;;;;;;24.58;12.95;;;;;;;10.62;61.12;98718.81;4903960;29;20036;-91
2022/11/16 08:33:37;;;;;;;15.07;8.32;;;;;;;10.71;61.27;98719.81;4888378;29;20108;-92
2022/11/16 08:36:11;;;;;;;18.27;8.45;;;;;;;10.79;61.24;98727.28;4885533;29;20036;-93
2022/11/16 08:38:41;;;;;;;15.82;9.50;;;;;;;11.06;60.38;98724.03;4888229;29;20056;-91
2022/11/16 08:41:10;;;;;;;13.05;7.40;;;;;;;11.07;59.45;98698.66;4871802;29;20144;-93
2022/11/16 08:43:38;;;;;;;17.10;7.75;;;;;;;11.30;59.61;98717.78;4886781;29;20158;-91
2022/11/16 08:46:04;;;;;;;30.95;18.48;;;;;;;11.29;59.15;98718.91;4868317;29;20032;-92
2022/11/16 08:48:30;;;;;;;18.58;10.57;;;;;;;11.34;59.08;98699.94;4868066;29;20511;-93
2022/11/16 08:51:02;;;;;;;18.80;10.02;;;;;;;11.56;58.69;98707.47;4869495;29;20043;-92
2022/11/16 08:53:27;;;;;;;18.73;10.88;;;;;;;11.68;59.01;98707.84;4900565;29;20111;-90
2022/11/16 08:56:00;;;;;;;33.17;21.60;;;;;;;11.59;59.60;98692.59;4900467;29;20036;-92
2022/11/16 08:58:26;;;;;;;17.75;8.10;;;;;;;11.40;59.16;98676.44;4902923;29;20509;-94
2022/11/16 09:00:51;;;;;;;11.68;6.97;;;;;;;11.41;60.17;98697.69;4881812;29;20046;-93
2022/11/16 09:03:19;;;;;;;11.45;7.07;;;;;;;11.50;59.90;98695.97;4871876;29;20047;-92
2022/11/16 09:05:45;;;;;;;11.27;7.05;;;;;;;11.58;59.84;98675.63;4884105;29;20111;-91
2022/11/16 09:08:11;;;;;;;13.60;6.68;;;;;;;11.78;59.13;98682.59;4871051;29;20043;-90
2022/11/16 09:10:39;;;;;;;10.45;6.65;;;;;;;11.90;58.47;98672.19;4895445;29;20060;-92
2022/11/16 09:13:11;;;;;;;12.25;7.43;;;;;;;12.06;58.43;98666.56;4913731;29;20040;-91
2022/11/16 09:15:40;;;;;;;11.85;7.47;;;;;;;12.21;57.89;98662.81;4883899;29;20020;-94
2022/11/16 09:18:06;;;;;;;12.25;7.25;;;;;;;12.17;57.65;98646.38;4866085;29;20478;-91
2022/11/16 09:20:31;;;;;;;12.77;8.57;;;;;;;12.30;58.27;98663.72;4880448;29;20036;-90
2022/11/16 09:22:57;;;;;;;13.23;7.80;;;;;;;12.17;58.04;98653.69;4865364;29;20032;-93
2022/11/16 09:25:25;;;;;;;16.20;7.82;;;;;;;12.28;58.49;98639.69;4884903;29;20040;-92
2022/11/16 09:27:52;;;;;;;14.05;7.85;;;;;;;12.32;57.55;98646.09;4913601;29;20107;-91
2022/11/16 09:30:18;;;;;;;11.88;7.55;;;;;;;12.53;57.71;98648.44;4915041;29;20028;-92
2022/11/16 09:32:44;;;;;;;11.13;6.18;;;;;;;12.70;57.38;98654.06;4898391;29;20032;-93
2022/11/16 09:35:10;;;;;;;10.23;5.95;;;;;;;12.80;55.74;98636.03;4886988;29;20024;-94
2022/11/16 09:37:35;;;;;;;11.95;6.65;;;;;;;12.88;56.46;98628.03;4890720;29;20574;-92
2022/11/16 09:40:01;;;;;;;11.52;6.93;;;;;;;13.08;56.33;98631.41;4888147;29;20063;-94
2022/11/16 09:42:59;;;;;;;10.27;5.25;;;;;;;13.17;55.38;98623.38;4880650;29;20127;-95
2022/11/16 09:45:41;;;;;;;10.88;6.00;;;;;;;13.25;54.86;98614.56;4907836;29;20040;-95
2022/11/16 09:48:11;;;;;;;10.27;6.10;;;;;;;13.32;55.10;98620.34;4926948;29;20043;-94
2022/11/16 09:50:56;;;;;;;12.55;5.82;;;;;;;13.53;54.34;98628.84;4899678;29;20076;-96
2022/11/16 09:53:33;;;;;;;14.73;6.70;;;;;;;13.67;54.64;98626.06;4908858;29;20032;-92
2022/11/16 09:56:43;;;;;;;10.15;5.97;;;;;;;13.64;53.88;98594.22;4924428;29;20036;-94
2022/11/16 09:59:25;;;;;;;8.52;5.20;;;;;;;13.88;53.65;98602.81;4907429;29;20063;-96
2022/11/16 10:02:21;;;;;;;14.57;6.55;;;;;;;14.02;53.44;98601.94;4912800;29;20501;-93
2022/11/16 10:05:10;;;;;;;10.45;6.57;;;;;;;14.12;53.00;98593.53;4927941;29;20419;-94
2022/11/16 10:08:01;;;;;;;16.40;9.15;;;;;;;14.08;52.88;98560.09;4922892;29;20057;-94
2022/11/16 10:10:27;;;;;;;10.90;6.57;;;;;;;14.33;52.88;98578.34;4875283;29;20094;-94
2022/11/16 10:13:52;;;;;;;9.80;5.93;;;;;;;14.28;52.69;98546.00;4905583;29;20063;-92
2022/11/16 10:16:39;;;;;;;18.77;6.75;;;;;;;14.43;52.43;98555.59;4883340;29;20040;-94
2022/11/16 10:19:04;;;;;;;13.70;7.95;;;;;;;14.52;52.83;98563.75;4906439;29;20032;-92
2022/11/16 10:21:40;;;;;;;13.88;7.05;;;;;;;14.50;52.69;98549.72;4905319;29;20029;-94
2022/11/16 10:24:37;;;;;;;11.35;7.53;;;;;;;14.56;52.46;98534.94;4890034;29;20039;-91
2022/11/16 10:27:31;;;;;;;13.77;8.52;;;;;;;14.59;52.79;98530.81;4890438;29;20031;-93
2022/11/16 10:30:22;;;;;;;12.75;7.15;;;;;;;14.64;52.62;98517.13;4884744;29;20052;-93
2022/11/16 10:32:53;;;;;;;11.52;6.28;;;;;;;14.84;52.77;98540.13;4867879;29;20036;-93
2022/11/16 10:35:27;;;;;;;16.63;6.75;;;;;;;14.88;52.61;98538.34;4898044;29;20523;-93
2022/11/16 10:37:59;;;;;;;11.63;7.00;;;;;;;14.84;52.50;98521.16;4884024;29;20028;-94
2022/11/16 10:40:54;;;;;;;12.38;7.50;;;;;;;14.85;52.26;98512.69;4869636;29;20040;-94
2022/11/16 10:43:39;;;;;;;15.02;7.07;;;;;;;14.91;52.20;98516.03;4883918;29;20361;-93
2022/11/16 10:46:21;;;;;;;9.70;5.65;;;;;;;15.07;51.97;98529.94;4865478;29;20567;-94
2022/11/16 10:49:10;;;;;;;11.35;6.78;;;;;;;15.18;51.44;98525.75;4882878;29;20193;-93
2022/11/16 10:51:36;;;;;;;9.80;5.75;;;;;;;15.03;51.56;98501.84;4898848;29;20483;-91
2022/11/16 10:54:03;;;;;;;10.48;5.82;;;;;;;15.22;51.63;98504.22;4868370;29;20051;-93
2022/11/16 10:56:31;;;;;;;11.05;6.15;;;;;;;15.29;51.35;98499.09;4885485;29;20041;-96
2022/11/16 10:59:01;;;;;;;11.02;6.63;;;;;;;15.26;51.64;98488.91;4881662;29;20024;-92
2022/11/16 11:01:35;;;;;;;21.85;11.82;;;;;;;15.44;51.43;98500.53;4883459;29;20464;-93
2022/11/16 11:04:32;;;;;;;14.15;7.43;;;;;;;15.39;51.19;98504.19;4896541;29;20036;-94
2022/11/16 11:07:21;;;;;;;11.52;6.93;;;;;;;15.48;51.82;98499.56;4881338;29;20036;-96
2022/11/16 11:10:02;;;;;;;15.02;8.45;;;;;;;15.37;51.76;98476.59;4875167;29;20049;-96
2022/11/16 11:12:37;;;;;;;12.80;6.53;;;;;;;15.41;51.98;98485.69;4874512;29;20032;-94
2022/11/16 11:15:27;;;;;;;12.88;7.40;;;;;;;15.55;52.65;98482.78;4868018;29;20509;-92
2022/11/16 11:18:26;;;;;;;13.93;9.02;;;;;;;15.38;53.73;98475.50;4881138;29;20586;-93
2022/11/16 11:21:16;;;;;;;16.02;9.70;;;;;;;15.23;54.07;98455.09;4867663;29;20048;-92
2022/11/16 11:23:47;;;;;;;14.85;9.00;;;;;;;15.28;54.18;98467.69;4863172;29;20128;-93
2022/11/16 11:26:39;;;;;;;17.43;9.33;;;;;;;15.30;54.80;98470.88;4862188;29;20025;-93
2022/11/16 11:29:20;;;;;;;14.32;8.73;;;;;;;15.31;54.70;98472.47;4879056;29;20503;-92
2022/11/16 11:31:51;;;;;;;12.70;7.70;;;;;;;15.26;54.59;98459.09;4878611;29;20037;-93
2022/11/16 11:34:18;;;;;;;13.75;8.13;;;;;;;15.44;54.21;98468.78;4851608;29;20028;-92
2022/11/16 11:36:49;;;;;;;13.88;8.32;;;;;;;15.39;54.39;98454.59;4880465;29;20024;-93
2022/11/16 11:39:15;;;;;;;15.27;9.35;;;;;;;15.42;54.49;98454.75;4850883;29;20036;-93
2022/11/16 11:41:46;;;;;;;12.43;7.90;;;;;;;15.42;54.23;98452.03;4895528;29;20033;-92
2022/11/16 11:44:18;;;;;;;13.90;7.95;;;;;;;15.32;54.46;98436.09;4854430;29;20032;-96
2022/11/16 11:46:49;;;;;;;14.00;9.27;;;;;;;15.33;55.03;98438.47;4893068;29;20028;-93
2022/11/16 11:49:20;;;;;;;13.70;8.43;;;;;;;15.44;54.66;98457.94;4855820;29;20124;-93
2022/11/16 11:51:45;;;;;;;15.30;8.40;;;;;;;15.33;54.55;98434.97;4853572;29;20028;-94
2022/11/16 11:54:34;;;;;;;13.00;7.32;;;;;;;15.50;54.24;98445.78;4868135;29;20645;-93
2022/11/16 11:57:00;;;;;;;15.45;8.05;;;;;;;15.31;54.39;98427.16;4868759;29;20040;-93
2022/11/16 11:59:25;;;;;;;13.32;7.93;;;;;;;15.37;54.61;98444.06;4868440;29;20495;-91
2022/11/16 12:02:28;;;;;;;10.90;7.18;;;;;;;15.42;54.43;98454.75;4883177;29;20112;-92
2022/11/16 12:05:03;;;;;;;11.18;6.05;;;;;;;15.40;54.15;98453.44;4900596;29;20551;-92
2022/11/16 12:07:35;;;;;;;11.30;7.32;;;;;;;15.39;54.26;98441.03;4899489;29;20047;-92
2022/11/16 12:10:11;;;;;;;11.32;6.60;;;;;;;15.25;54.27;98425.75;4908031;29;20044;-94
2022/11/16 12:12:54;;;;;;;10.52;6.72;;;;;;;15.34;53.80;98415.66;4902824;29;20028;-93
2022/11/16 12:15:44;;;;;;;10.95;7.03;;;;;;;15.53;53.82;98445.13;4902421;29;20728;-91
2022/11/16 12:18:24;;;;;;;8.90;5.80;;;;;;;15.51;53.83;98446.59;4919290;29;20035;-90
2022/11/16 12:21:16;;;;;;;7.80;5.25;;;;;;;15.59;53.00;98445.75;4918376;29;20451;-94
2022/11/16 12:23:54;;;;;;;9.05;5.82;;;;;;;15.57;53.27;98437.16;4902506;29;20075;-92
2022/11/16 12:26:45;;;;;;;11.57;5.20;;;;;;;15.45;52.23;98410.69;4899126;29;20154;-90
2022/11/16 12:29:42;;;;;;;;;;;;;;;;;;;;;
2022/11/16 12:32:14;;;;;;;9.00;6.13;;;;;;;15.67;52.70;98414.28;4932005;29;20052;-94
2022/11/16 13:02:28;;;;;;;8.27;4.18;;;;;;;15.99;50.33;98409.38;4859562;29;20072;-92
2022/11/16 13:05:34;;;;;;;10.07;4.93;;;;;;;15.85;50.67;98385.94;4839544;29;20065;-91
2022/11/16 13:12:23;;;;;;;;;;;;;;;;;;;;;
2022/11/16 13:18:02;;;;;;;8.98;5.70;;;;;;;15.98;51.35;98394.19;4786153;29;20125;-93
2022/11/16 13:20:34;;;;;;;9.50;6.20;;;;;;;15.98;50.93;98392.28;4810289;29;20050;-93
2022/11/16 13:23:29;;;;;;;13.57;7.10;;;;;;;16.07;51.27;98405.81;4821868;29;20042;-93
2022/11/16 13:26:23;;;;;;;14.20;8.38;;;;;;;16.00;50.77;98400.91;4819131;29;20071;-92
2022/11/16 13:29:10;;;;;;;10.93;7.53;;;;;;;15.98;51.40;98407.75;4829242;29;20516;-92